sensor_id;sensor_type;location;lat;lon;timestamp;temperature;humidity
61151;DHT22;47029;50.994;2.876;2023-02-15T00:01:46;4.40;99.90
61151;DHT22;47029;50.994;2.876;2023-02-15T00:04:17;4.30;99.90
61151;DHT22;47029;50.994;2.876;2023-02-15T00:06:43;4.30;99.90
61151;DHT22;47029;50.994;2.876;2023-02-15T00:09:09;4.20;99.90
61151;DHT22;47029;50.994;2.876;2023-02-15T00:11:35;4.20;99.90
61151;DHT22;47029;50.994;2.876;2023-02-15T00:14:23;4.20;99.90
61151;DHT22;47029;50.994;2.876;2023-02-15T00:16:50;4.10;99.90
61151;DHT22;47029;50.994;2.876;2023-02-15T00:19:20;4.10;99.90
61151;DHT22;47029;50.994;2.876;2023-02-15T00:21:47;4.10;99.90
61151;DHT22;47029;50.994;2.876;2023-02-15T00:24:15;4.10;99.90
61151;DHT22;47029;50.994;2.876;2023-02-15T00:26:41;4.10;99.90
61151;DHT22;47029;50.994;2.876;2023-02-15T00:29:08;4.20;99.90
61151;DHT22;47029;50.994;2.876;2023-02-15T00:31:35;4.30;99.90
61151;DHT22;47029;50.994;2.876;2023-02-15T00:34:05;4.30;99.90
61151;DHT22;47029;50.994;2.876;2023-02-15T00:36:31;4.30;99.90
61151;DHT22;47029;50.994;2.876;2023-02-15T00:38:57;4.40;99.90
61151;DHT22;47029;50.994;2.876;2023-02-15T00:41:23;4.40;99.90
61151;DHT22;47029;50.994;2.876;2023-02-15T00:43:48;4.30;99.90
61151;DHT22;47029;50.994;2.876;2023-02-15T00:46:14;4.00;99.90
61151;DHT22;47029;50.994;2.876;2023-02-15T00:48:42;4.10;99.90
61151;DHT22;47029;50.994;2.876;2023-02-15T00:51:08;4.10;99.90
61151;DHT22;47029;50.994;2.876;2023-02-15T00:53:33;4.00;99.90
61151;DHT22;47029;50.994;2.876;2023-02-15T00:55:59;4.00;99.90
61151;DHT22;47029;50.994;2.876;2023-02-15T00:58:25;3.90;99.90
61151;DHT22;47029;50.994;2.876;2023-02-15T01:00:51;3.80;99.90
61151;DHT22;47029;50.994;2.876;2023-02-15T01:03:19;3.80;99.90
61151;DHT22;47029;50.994;2.876;2023-02-15T01:05:47;3.80;99.90
61151;DHT22;47029;50.994;2.876;2023-02-15T01:08:13;3.70;99.90
61151;DHT22;47029;50.994;2.876;2023-02-15T01:10:38;3.70;99.90
61151;DHT22;47029;50.994;2.876;2023-02-15T01:13:04;3.60;99.90
61151;DHT22;47029;50.994;2.876;2023-02-15T01:15:30;3.70;99.90
61151;DHT22;47029;50.994;2.876;2023-02-15T01:17:56;3.70;99.90
61151;DHT22;47029;50.994;2.876;2023-02-15T01:20:24;3.70;99.90
61151;DHT22;47029;50.994;2.876;2023-02-15T01:22:50;3.70;99.90
61151;DHT22;47029;50.994;2.876;2023-02-15T01:25:17;3.70;99.90
61151;DHT22;47029;50.994;2.876;2023-02-15T01:27:48;3.80;99.90
61151;DHT22;47029;50.994;2.876;2023-02-15T01:30:16;3.80;99.90
61151;DHT22;47029;50.994;2.876;2023-02-15T01:32:42;4.00;99.90
61151;DHT22;47029;50.994;2.876;2023-02-15T01:35:09;3.80;99.90
61151;DHT22;47029;50.994;2.876;2023-02-15T01:37:35;3.60;99.90
61151;DHT22;47029;50.994;2.876;2023-02-15T01:40:02;3.60;99.90
61151;DHT22;47029;50.994;2.876;2023-02-15T01:42:29;3.60;99.90
61151;DHT22;47029;50.994;2.876;2023-02-15T01:44:59;3.70;99.90
61151;DHT22;47029;50.994;2.876;2023-02-15T01:47:42;3.50;99.90
61151;DHT22;47029;50.994;2.876;2023-02-15T01:52:40;3.60;99.90
61151;DHT22;47029;50.994;2.876;2023-02-15T01:55:10;3.50;99.90
61151;DHT22;47029;50.994;2.876;2023-02-15T01:57:38;3.50;99.90
61151;DHT22;47029;50.994;2.876;2023-02-15T02:00:08;3.50;99.90
61151;DHT22;47029;50.994;2.876;2023-02-15T02:02:34;3.40;99.90
61151;DHT22;47029;50.994;2.876;2023-02-15T02:05:02;3.50;99.90
61151;DHT22;47029;50.994;2.876;2023-02-15T02:07:33;3.60;99.90
61151;DHT22;47029;50.994;2.876;2023-02-15T02:10:00;3.70;99.90
61151;DHT22;47029;50.994;2.876;2023-02-15T02:12:26;3.70;99.90
61151;DHT22;47029;50.994;2.876;2023-02-15T02:14:52;3.60;99.90
61151;DHT22;47029;50.994;2.876;2023-02-15T02:26:22;3.30;99.90
61151;DHT22;47029;50.994;2.876;2023-02-15T02:34:26;3.30;99.90
61151;DHT22;47029;50.994;2.876;2023-02-15T02:42:43;3.50;99.90
61151;DHT22;47029;50.994;2.876;2023-02-15T02:45:35;3.50;99.90
61151;DHT22;47029;50.994;2.876;2023-02-15T02:48:09;3.60;99.90
61151;DHT22;47029;50.994;2.876;2023-02-15T02:50:39;3.70;99.90
61151;DHT22;47029;50.994;2.876;2023-02-15T02:53:05;3.70;99.90
61151;DHT22;47029;50.994;2.876;2023-02-15T02:55:42;3.70;99.90
61151;DHT22;47029;50.994;2.876;2023-02-15T02:58:17;3.60;99.90
61151;DHT22;47029;50.994;2.876;2023-02-15T03:01:14;3.50;99.90
61151;DHT22;47029;50.994;2.876;2023-02-15T03:03:41;3.50;99.90
61151;DHT22;47029;50.994;2.876;2023-02-15T03:06:14;3.30;99.90
61151;DHT22;47029;50.994;2.876;2023-02-15T03:08:50;3.10;99.90
61151;DHT22;47029;50.994;2.876;2023-02-15T03:11:18;3.10;99.90
61151;DHT22;47029;50.994;2.876;2023-02-15T03:13:46;3.10;99.90
61151;DHT22;47029;50.994;2.876;2023-02-15T03:16:16;3.00;99.90
61151;DHT22;47029;50.994;2.876;2023-02-15T03:19:22;3.20;99.90
61151;DHT22;47029;50.994;2.876;2023-02-15T03:21:58;3.00;99.90
61151;DHT22;47029;50.994;2.876;2023-02-15T03:24:59;3.00;99.90
61151;DHT22;47029;50.994;2.876;2023-02-15T03:27:30;3.00;99.90
61151;DHT22;47029;50.994;2.876;2023-02-15T03:29:58;3.20;99.90
61151;DHT22;47029;50.994;2.876;2023-02-15T03:32:27;3.10;99.90
61151;DHT22;47029;50.994;2.876;2023-02-15T03:34:54;3.10;99.90
61151;DHT22;47029;50.994;2.876;2023-02-15T03:40:44;2.80;99.90
61151;DHT22;47029;50.994;2.876;2023-02-15T03:43:54;2.60;99.90
61151;DHT22;47029;50.994;2.876;2023-02-15T03:46:45;2.50;99.90
61151;DHT22;47029;50.994;2.876;2023-02-15T03:49:17;2.50;99.90
61151;DHT22;47029;50.994;2.876;2023-02-15T03:51:48;2.50;99.90
61151;DHT22;47029;50.994;2.876;2023-02-15T03:54:25;2.50;99.90
61151;DHT22;47029;50.994;2.876;2023-02-15T04:05:42;2.50;99.90
61151;DHT22;47029;50.994;2.876;2023-02-15T04:08:11;2.40;99.90
61151;DHT22;47029;50.994;2.876;2023-02-15T04:10:38;2.00;99.90
61151;DHT22;47029;50.994;2.876;2023-02-15T04:13:20;2.50;99.90
61151;DHT22;47029;50.994;2.876;2023-02-15T04:15:49;2.60;99.90
61151;DHT22;47029;50.994;2.876;2023-02-15T04:18:41;2.70;99.90
61151;DHT22;47029;50.994;2.876;2023-02-15T04:21:27;2.70;99.90
61151;DHT22;47029;50.994;2.876;2023-02-15T04:24:12;2.60;99.90
61151;DHT22;47029;50.994;2.876;2023-02-15T04:26:57;1.90;99.90
61151;DHT22;47029;50.994;2.876;2023-02-15T04:29:24;2.80;99.90
61151;DHT22;47029;50.994;2.876;2023-02-15T04:31:50;2.80;99.90
61151;DHT22;47029;50.994;2.876;2023-02-15T04:34:16;2.80;99.90
61151;DHT22;47029;50.994;2.876;2023-02-15T04:36:42;2.80;99.90
61151;DHT22;47029;50.994;2.876;2023-02-15T04:39:08;2.70;99.90
61151;DHT22;47029;50.994;2.876;2023-02-15T04:41:37;2.50;99.90
61151;DHT22;47029;50.994;2.876;2023-02-15T04:44:02;2.50;99.90
61151;DHT22;47029;50.994;2.876;2023-02-15T04:46:28;2.60;99.90
61151;DHT22;47029;50.994;2.876;2023-02-15T04:48:55;2.70;99.90
61151;DHT22;47029;50.994;2.876;2023-02-15T04:51:21;2.60;99.90
61151;DHT22;47029;50.994;2.876;2023-02-15T04:53:47;2.70;99.90
61151;DHT22;47029;50.994;2.876;2023-02-15T04:56:12;2.60;99.90
61151;DHT22;47029;50.994;2.876;2023-02-15T04:58:38;2.70;99.90
61151;DHT22;47029;50.994;2.876;2023-02-15T05:01:07;2.60;99.90
61151;DHT22;47029;50.994;2.876;2023-02-15T05:03:34;2.50;99.90
61151;DHT22;47029;50.994;2.876;2023-02-15T05:06:03;2.60;99.90
61151;DHT22;47029;50.994;2.876;2023-02-15T05:08:29;2.60;99.90
61151;DHT22;47029;50.994;2.876;2023-02-15T05:10:54;2.50;99.90
61151;DHT22;47029;50.994;2.876;2023-02-15T05:13:20;2.40;99.90
61151;DHT22;47029;50.994;2.876;2023-02-15T05:15:50;2.30;99.90
61151;DHT22;47029;50.994;2.876;2023-02-15T05:18:17;2.30;99.90
61151;DHT22;47029;50.994;2.876;2023-02-15T05:20:43;2.30;99.90
61151;DHT22;47029;50.994;2.876;2023-02-15T05:23:09;2.30;99.90
61151;DHT22;47029;50.994;2.876;2023-02-15T05:25:35;2.60;99.90
61151;DHT22;47029;50.994;2.876;2023-02-15T05:28:26;2.30;99.90
61151;DHT22;47029;50.994;2.876;2023-02-15T05:31:13;2.30;99.90
61151;DHT22;47029;50.994;2.876;2023-02-15T05:33:39;2.30;99.90
61151;DHT22;47029;50.994;2.876;2023-02-15T05:36:05;2.40;99.90
61151;DHT22;47029;50.994;2.876;2023-02-15T05:38:31;2.30;99.90
61151;DHT22;47029;50.994;2.876;2023-02-15T05:40:58;2.20;99.90
61151;DHT22;47029;50.994;2.876;2023-02-15T05:43:24;2.20;99.90
61151;DHT22;47029;50.994;2.876;2023-02-15T05:45:52;2.20;99.90
61151;DHT22;47029;50.994;2.876;2023-02-15T05:48:19;2.30;99.90
61151;DHT22;47029;50.994;2.876;2023-02-15T05:50:46;2.10;99.90
61151;DHT22;47029;50.994;2.876;2023-02-15T05:53:12;2.10;99.90
61151;DHT22;47029;50.994;2.876;2023-02-15T05:55:41;2.00;99.90
61151;DHT22;47029;50.994;2.876;2023-02-15T05:58:07;2.10;99.90
61151;DHT22;47029;50.994;2.876;2023-02-15T06:00:34;2.10;99.90
61151;DHT22;47029;50.994;2.876;2023-02-15T06:02:59;2.10;99.90
61151;DHT22;47029;50.994;2.876;2023-02-15T06:05:25;2.20;99.90
61151;DHT22;47029;50.994;2.876;2023-02-15T06:07:51;2.30;99.90
61151;DHT22;47029;50.994;2.876;2023-02-15T06:10:17;2.50;99.90
61151;DHT22;47029;50.994;2.876;2023-02-15T06:12:44;2.70;99.90
61151;DHT22;47029;50.994;2.876;2023-02-15T06:15:10;2.80;99.90
61151;DHT22;47029;50.994;2.876;2023-02-15T06:17:36;2.90;99.90
61151;DHT22;47029;50.994;2.876;2023-02-15T06:20:04;3.00;99.90
61151;DHT22;47029;50.994;2.876;2023-02-15T06:22:30;2.90;99.90
61151;DHT22;47029;50.994;2.876;2023-02-15T06:24:55;2.80;99.90
61151;DHT22;47029;50.994;2.876;2023-02-15T06:27:23;2.70;99.90
61151;DHT22;47029;50.994;2.876;2023-02-15T06:29:49;2.70;99.90
61151;DHT22;47029;50.994;2.876;2023-02-15T06:32:17;2.60;99.90
61151;DHT22;47029;50.994;2.876;2023-02-15T06:34:43;2.60;99.90
61151;DHT22;47029;50.994;2.876;2023-02-15T06:37:08;2.70;99.90
61151;DHT22;47029;50.994;2.876;2023-02-15T06:39:34;2.80;99.90
61151;DHT22;47029;50.994;2.876;2023-02-15T06:42:00;3.00;99.90
61151;DHT22;47029;50.994;2.876;2023-02-15T06:44:25;2.90;99.90
61151;DHT22;47029;50.994;2.876;2023-02-15T06:46:51;3.00;99.90
61151;DHT22;47029;50.994;2.876;2023-02-15T06:49:17;3.20;99.90
61151;DHT22;47029;50.994;2.876;2023-02-15T06:51:45;3.20;99.90
61151;DHT22;47029;50.994;2.876;2023-02-15T06:54:11;3.30;99.90
61151;DHT22;47029;50.994;2.876;2023-02-15T06:56:36;3.20;99.90
61151;DHT22;47029;50.994;2.876;2023-02-15T06:59:02;3.20;99.90
61151;DHT22;47029;50.994;2.876;2023-02-15T07:01:28;3.10;99.90
61151;DHT22;47029;50.994;2.876;2023-02-15T07:03:53;3.10;99.90
61151;DHT22;47029;50.994;2.876;2023-02-15T07:06:19;3.20;99.90
61151;DHT22;47029;50.994;2.876;2023-02-15T07:08:45;3.20;99.90
61151;DHT22;47029;50.994;2.876;2023-02-15T07:11:11;3.10;99.90
61151;DHT22;47029;50.994;2.876;2023-02-15T07:13:55;3.20;99.90
61151;DHT22;47029;50.994;2.876;2023-02-15T07:16:21;3.20;99.90
61151;DHT22;47029;50.994;2.876;2023-02-15T07:18:46;3.30;99.90
61151;DHT22;47029;50.994;2.876;2023-02-15T07:21:12;3.50;99.90
61151;DHT22;47029;50.994;2.876;2023-02-15T07:23:41;3.60;99.90
61151;DHT22;47029;50.994;2.876;2023-02-15T07:26:07;3.60;99.90
61151;DHT22;47029;50.994;2.876;2023-02-15T07:28:34;3.70;99.90
61151;DHT22;47029;50.994;2.876;2023-02-15T07:31:03;3.70;99.90
61151;DHT22;47029;50.994;2.876;2023-02-15T07:33:35;3.80;99.90
61151;DHT22;47029;50.994;2.876;2023-02-15T07:36:03;3.80;99.90
61151;DHT22;47029;50.994;2.876;2023-02-15T07:38:34;3.80;99.90
61151;DHT22;47029;50.994;2.876;2023-02-15T07:41:05;3.90;99.90
61151;DHT22;47029;50.994;2.876;2023-02-15T07:43:34;3.90;99.90
61151;DHT22;47029;50.994;2.876;2023-02-15T07:46:02;3.90;99.90
61151;DHT22;47029;50.994;2.876;2023-02-15T07:48:28;4.10;99.90
61151;DHT22;47029;50.994;2.876;2023-02-15T07:50:58;4.00;99.90
61151;DHT22;47029;50.994;2.876;2023-02-15T07:53:24;4.00;99.90
61151;DHT22;47029;50.994;2.876;2023-02-15T07:55:50;3.90;99.90
61151;DHT22;47029;50.994;2.876;2023-02-15T07:58:18;3.90;99.90
61151;DHT22;47029;50.994;2.876;2023-02-15T08:00:44;4.00;99.90
61151;DHT22;47029;50.994;2.876;2023-02-15T08:03:25;4.10;99.90
61151;DHT22;47029;50.994;2.876;2023-02-15T08:05:59;4.20;99.90
61151;DHT22;47029;50.994;2.876;2023-02-15T08:08:26;4.30;99.90
61151;DHT22;47029;50.994;2.876;2023-02-15T08:11:22;4.40;99.90
61151;DHT22;47029;50.994;2.876;2023-02-15T08:14:12;4.50;99.90
61151;DHT22;47029;50.994;2.876;2023-02-15T08:21:38;4.80;99.90
61151;DHT22;47029;50.994;2.876;2023-02-15T08:24:06;4.70;99.90
61151;DHT22;47029;50.994;2.876;2023-02-15T08:26:33;4.70;99.90
61151;DHT22;47029;50.994;2.876;2023-02-15T08:29:00;4.70;99.90
61151;DHT22;47029;50.994;2.876;2023-02-15T08:31:26;4.80;99.90
61151;DHT22;47029;50.994;2.876;2023-02-15T08:33:53;4.90;99.90
61151;DHT22;47029;50.994;2.876;2023-02-15T08:36:22;5.00;99.90
61151;DHT22;47029;50.994;2.876;2023-02-15T08:38:48;5.00;99.90
61151;DHT22;47029;50.994;2.876;2023-02-15T08:41:19;5.10;99.90
61151;DHT22;47029;50.994;2.876;2023-02-15T08:43:47;5.10;99.90
61151;DHT22;47029;50.994;2.876;2023-02-15T08:46:14;5.20;99.90
61151;DHT22;47029;50.994;2.876;2023-02-15T08:48:41;5.20;99.90
61151;DHT22;47029;50.994;2.876;2023-02-15T08:51:15;5.40;99.90
61151;DHT22;47029;50.994;2.876;2023-02-15T08:53:45;5.60;99.90
61151;DHT22;47029;50.994;2.876;2023-02-15T08:56:11;5.60;99.90
61151;DHT22;47029;50.994;2.876;2023-02-15T08:58:37;5.70;99.90
61151;DHT22;47029;50.994;2.876;2023-02-15T09:01:11;5.80;99.90
61151;DHT22;47029;50.994;2.876;2023-02-15T09:03:44;5.80;99.90
61151;DHT22;47029;50.994;2.876;2023-02-15T09:06:10;5.80;99.90
61151;DHT22;47029;50.994;2.876;2023-02-15T09:08:36;6.00;99.90
61151;DHT22;47029;50.994;2.876;2023-02-15T09:13:39;6.10;99.90
61151;DHT22;47029;50.994;2.876;2023-02-15T09:16:06;6.20;99.90
61151;DHT22;47029;50.994;2.876;2023-02-15T09:18:36;6.30;99.90
61151;DHT22;47029;50.994;2.876;2023-02-15T09:21:12;6.40;99.90
61151;DHT22;47029;50.994;2.876;2023-02-15T09:23:42;6.50;99.90
61151;DHT22;47029;50.994;2.876;2023-02-15T09:26:14;6.60;99.90
61151;DHT22;47029;50.994;2.876;2023-02-15T09:28:40;6.70;99.90
61151;DHT22;47029;50.994;2.876;2023-02-15T09:33:42;6.80;99.90
61151;DHT22;47029;50.994;2.876;2023-02-15T09:36:20;7.00;99.90
61151;DHT22;47029;50.994;2.876;2023-02-15T09:38:52;7.10;99.90
61151;DHT22;47029;50.994;2.876;2023-02-15T09:44:18;7.40;99.90
61151;DHT22;47029;50.994;2.876;2023-02-15T09:52:10;7.50;99.90
61151;DHT22;47029;50.994;2.876;2023-02-15T10:28:19;8.50;99.90
61151;DHT22;47029;50.994;2.876;2023-02-15T10:30:54;8.60;99.90
61151;DHT22;47029;50.994;2.876;2023-02-15T10:39:19;9.00;99.90
61151;DHT22;47029;50.994;2.876;2023-02-15T10:56:24;10.10;99.90
61151;DHT22;47029;50.994;2.876;2023-02-15T10:59:15;10.00;99.90
61151;DHT22;47029;50.994;2.876;2023-02-15T11:02:02;10.10;99.90
61151;DHT22;47029;50.994;2.876;2023-02-15T11:04:47;10.10;99.90
61151;DHT22;47029;50.994;2.876;2023-02-15T11:07:23;10.20;99.90
61151;DHT22;47029;50.994;2.876;2023-02-15T11:12:38;11.50;99.90
61151;DHT22;47029;50.994;2.876;2023-02-15T11:15:24;10.10;99.90
61151;DHT22;47029;50.994;2.876;2023-02-15T11:18:05;10.20;99.90
61151;DHT22;47029;50.994;2.876;2023-02-15T11:20:42;10.20;99.90
61151;DHT22;47029;50.994;2.876;2023-02-15T11:23:14;10.10;99.90
61151;DHT22;47029;50.994;2.876;2023-02-15T11:25:44;10.10;99.90
61151;DHT22;47029;50.994;2.876;2023-02-15T11:28:19;10.30;99.90
61151;DHT22;47029;50.994;2.876;2023-02-15T11:30:53;10.50;99.90
61151;DHT22;47029;50.994;2.876;2023-02-15T11:33:31;10.60;99.90
61151;DHT22;47029;50.994;2.876;2023-02-15T11:36:13;10.70;99.90
61151;DHT22;47029;50.994;2.876;2023-02-15T11:38:43;10.70;99.90
61151;DHT22;47029;50.994;2.876;2023-02-15T11:41:12;10.70;99.90
61151;DHT22;47029;50.994;2.876;2023-02-15T11:44:34;11.00;99.90
61151;DHT22;47029;50.994;2.876;2023-02-15T11:46:52;11.30;99.90
61151;DHT22;47029;50.994;2.876;2023-02-15T11:51:52;11.30;99.90
61151;DHT22;47029;50.994;2.876;2023-02-15T11:54:23;11.20;99.90
61151;DHT22;47029;50.994;2.876;2023-02-15T11:56:55;11.30;99.90
61151;DHT22;47029;50.994;2.876;2023-02-15T11:59:29;11.60;99.90
61151;DHT22;47029;50.994;2.876;2023-02-15T12:01:56;11.70;99.90
61151;DHT22;47029;50.994;2.876;2023-02-15T12:04:32;11.50;99.90
61151;DHT22;47029;50.994;2.876;2023-02-15T12:10:00;11.50;99.90
61151;DHT22;47029;50.994;2.876;2023-02-15T12:12:32;11.70;99.90
61151;DHT22;47029;50.994;2.876;2023-02-15T12:15:06;11.60;99.90
61151;DHT22;47029;50.994;2.876;2023-02-15T12:17:34;11.80;99.90
61151;DHT22;47029;50.994;2.876;2023-02-15T12:20:47;11.70;99.90
61151;DHT22;47029;50.994;2.876;2023-02-15T12:22:53;11.90;99.90
61151;DHT22;47029;50.994;2.876;2023-02-15T12:27:57;12.20;99.90
61151;DHT22;47029;50.994;2.876;2023-02-15T12:30:31;12.20;99.90
61151;DHT22;47029;50.994;2.876;2023-02-15T12:33:52;12.20;99.90
61151;DHT22;47029;50.994;2.876;2023-02-15T12:36:18;12.40;99.90
61151;DHT22;47029;50.994;2.876;2023-02-15T12:41:28;12.30;99.90
61151;DHT22;47029;50.994;2.876;2023-02-15T12:47:27;12.30;99.90
61151;DHT22;47029;50.994;2.876;2023-02-15T12:52:29;12.50;99.90
61151;DHT22;47029;50.994;2.876;2023-02-15T12:55:11;12.40;99.90
61151;DHT22;47029;50.994;2.876;2023-02-15T12:57:42;12.60;99.90
61151;DHT22;47029;50.994;2.876;2023-02-15T13:02:47;12.70;99.90
61151;DHT22;47029;50.994;2.876;2023-02-15T13:05:41;12.70;99.90
61151;DHT22;47029;50.994;2.876;2023-02-15T13:08:15;12.50;99.90
61151;DHT22;47029;50.994;2.876;2023-02-15T13:13:19;12.10;99.90
61151;DHT22;47029;50.994;2.876;2023-02-15T13:15:50;12.10;99.90
61151;DHT22;47029;50.994;2.876;2023-02-15T13:18:19;12.10;99.90
61151;DHT22;47029;50.994;2.876;2023-02-15T13:20:49;12.20;99.90
61151;DHT22;47029;50.994;2.876;2023-02-15T13:25:50;12.30;99.90
61151;DHT22;47029;50.994;2.876;2023-02-15T13:28:18;12.50;99.90
61151;DHT22;47029;50.994;2.876;2023-02-15T13:30:49;12.40;99.90
61151;DHT22;47029;50.994;2.876;2023-02-15T13:33:33;12.40;99.90
61151;DHT22;47029;50.994;2.876;2023-02-15T13:41:09;12.40;99.90
61151;DHT22;47029;50.994;2.876;2023-02-15T13:51:54;12.60;99.90
61151;DHT22;47029;50.994;2.876;2023-02-15T13:54:53;12.40;99.90
61151;DHT22;47029;50.994;2.876;2023-02-15T13:57:29;12.60;99.90
61151;DHT22;47029;50.994;2.876;2023-02-15T14:00:14;12.70;99.90
61151;DHT22;47029;50.994;2.876;2023-02-15T14:29:51;12.60;99.90
61151;DHT22;47029;50.994;2.876;2023-02-15T14:32:34;12.60;99.90
61151;DHT22;47029;50.994;2.876;2023-02-15T14:35:14;12.70;99.90
61151;DHT22;47029;50.994;2.876;2023-02-15T14:40:57;12.70;99.90
61151;DHT22;47029;50.994;2.876;2023-02-15T14:46:50;12.50;99.90
61151;DHT22;47029;50.994;2.876;2023-02-15T14:49:31;12.60;99.90
61151;DHT22;47029;50.994;2.876;2023-02-15T14:52:04;12.60;99.90
61151;DHT22;47029;50.994;2.876;2023-02-15T14:59:38;13.70;99.90
61151;DHT22;47029;50.994;2.876;2023-02-15T15:04:43;12.70;99.90
61151;DHT22;47029;50.994;2.876;2023-02-15T15:07:28;12.60;99.90
61151;DHT22;47029;50.994;2.876;2023-02-15T15:15:01;12.60;99.90
61151;DHT22;47029;50.994;2.876;2023-02-15T15:20:12;12.70;99.90
61151;DHT22;47029;50.994;2.876;2023-02-15T15:22:43;12.70;99.90
61151;DHT22;47029;50.994;2.876;2023-02-15T15:25:39;12.80;99.90
61151;DHT22;47029;50.994;2.876;2023-02-15T15:27:57;12.80;99.90
61151;DHT22;47029;50.994;2.876;2023-02-15T15:44:28;12.80;99.90
61151;DHT22;47029;50.994;2.876;2023-02-15T15:47:08;12.90;99.90
61151;DHT22;47029;50.994;2.876;2023-02-15T15:49:40;12.80;99.90
61151;DHT22;47029;50.994;2.876;2023-02-15T15:52:18;12.80;99.90
61151;DHT22;47029;50.994;2.876;2023-02-15T15:54:57;12.80;99.90
61151;DHT22;47029;50.994;2.876;2023-02-15T15:57:34;12.70;99.90
61151;DHT22;47029;50.994;2.876;2023-02-15T16:00:00;12.80;99.90
61151;DHT22;47029;50.994;2.876;2023-02-15T16:02:27;12.70;99.90
61151;DHT22;47029;50.994;2.876;2023-02-15T16:05:04;12.80;99.90
61151;DHT22;47029;50.994;2.876;2023-02-15T16:07:31;12.70;99.90
61151;DHT22;47029;50.994;2.876;2023-02-15T16:10:06;12.70;99.90
61151;DHT22;47029;50.994;2.876;2023-02-15T16:12:37;12.70;99.90
61151;DHT22;47029;50.994;2.876;2023-02-15T16:15:20;12.80;99.90
61151;DHT22;47029;50.994;2.876;2023-02-15T16:17:49;12.80;99.90
61151;DHT22;47029;50.994;2.876;2023-02-15T16:20:35;12.70;99.90
61151;DHT22;47029;50.994;2.876;2023-02-15T16:23:16;12.60;99.90
61151;DHT22;47029;50.994;2.876;2023-02-15T16:28:31;12.40;99.90
61151;DHT22;47029;50.994;2.876;2023-02-15T16:31:13;12.30;99.90
61151;DHT22;47029;50.994;2.876;2023-02-15T16:33:41;12.20;99.90
61151;DHT22;47029;50.994;2.876;2023-02-15T16:36:11;12.10;99.90
61151;DHT22;47029;50.994;2.876;2023-02-15T16:38:54;12.00;99.90
61151;DHT22;47029;50.994;2.876;2023-02-15T16:41:30;11.80;99.90
61151;DHT22;47029;50.994;2.876;2023-02-15T16:43:58;11.80;99.90
61151;DHT22;47029;50.994;2.876;2023-02-15T16:46:31;11.70;99.90
61151;DHT22;47029;50.994;2.876;2023-02-15T16:49:06;11.60;99.90
61151;DHT22;47029;50.994;2.876;2023-02-15T16:51:34;11.50;99.90
61151;DHT22;47029;50.994;2.876;2023-02-15T16:54:07;11.40;99.90
61151;DHT22;47029;50.994;2.876;2023-02-15T16:56:33;11.40;99.90
61151;DHT22;47029;50.994;2.876;2023-02-15T16:59:02;11.30;99.90
61151;DHT22;47029;50.994;2.876;2023-02-15T17:01:30;11.30;99.90
61151;DHT22;47029;50.994;2.876;2023-02-15T17:07:20;11.20;99.90
61151;DHT22;47029;50.994;2.876;2023-02-15T17:09:53;11.10;99.90
61151;DHT22;47029;50.994;2.876;2023-02-15T17:12:45;11.00;99.90
61151;DHT22;47029;50.994;2.876;2023-02-15T17:18:29;10.80;99.90
61151;DHT22;47029;50.994;2.876;2023-02-15T17:20:58;10.80;99.90
61151;DHT22;47029;50.994;2.876;2023-02-15T17:23:42;10.80;99.90
61151;DHT22;47029;50.994;2.876;2023-02-15T17:26:35;10.60;99.90
61151;DHT22;47029;50.994;2.876;2023-02-15T17:29:09;10.60;99.90
61151;DHT22;47029;50.994;2.876;2023-02-15T17:31:39;10.40;99.90
61151;DHT22;47029;50.994;2.876;2023-02-15T17:34:05;10.40;99.90
61151;DHT22;47029;50.994;2.876;2023-02-15T17:36:31;10.30;99.90
61151;DHT22;47029;50.994;2.876;2023-02-15T17:41:27;10.10;99.90
61151;DHT22;47029;50.994;2.876;2023-02-15T17:43:54;9.80;99.90
61151;DHT22;47029;50.994;2.876;2023-02-15T17:46:20;9.70;99.90
61151;DHT22;47029;50.994;2.876;2023-02-15T17:48:53;9.70;99.90
61151;DHT22;47029;50.994;2.876;2023-02-15T17:51:20;9.80;99.90
61151;DHT22;47029;50.994;2.876;2023-02-15T17:53:49;9.90;99.90
61151;DHT22;47029;50.994;2.876;2023-02-15T17:56:34;9.90;99.90
61151;DHT22;47029;50.994;2.876;2023-02-15T17:59:00;10.00;99.90
61151;DHT22;47029;50.994;2.876;2023-02-15T18:01:26;9.90;99.90
61151;DHT22;47029;50.994;2.876;2023-02-15T18:04:12;9.90;99.90
61151;DHT22;47029;50.994;2.876;2023-02-15T18:06:57;9.90;99.90
61151;DHT22;47029;50.994;2.876;2023-02-15T18:09:43;9.60;99.90
61151;DHT22;47029;50.994;2.876;2023-02-15T18:12:30;8.00;99.90
61151;DHT22;47029;50.994;2.876;2023-02-15T18:14:58;9.50;99.90
61151;DHT22;47029;50.994;2.876;2023-02-15T18:17:28;9.40;99.90
61151;DHT22;47029;50.994;2.876;2023-02-15T18:19:55;9.30;99.90
61151;DHT22;47029;50.994;2.876;2023-02-15T18:22:21;9.20;99.90
61151;DHT22;47029;50.994;2.876;2023-02-15T18:24:47;9.10;99.90
61151;DHT22;47029;50.994;2.876;2023-02-15T18:27:14;9.20;99.90
61151;DHT22;47029;50.994;2.876;2023-02-15T18:29:41;9.50;99.90
61151;DHT22;47029;50.994;2.876;2023-02-15T18:32:12;9.40;99.90
